Time;durP1;ratioP1;P1;durP2;ratioP2;P2;SDS_P1;SDS_P2;PMS_P1;PMS_P2;Temp;Humidity;BMP_temperature;BMP_pressure;BME280_temperature;BME280_humidity;BME280_pressure;Samples;Min_cycle;Max_cycle;Signal;HPM_P1;HPM_P2
2023/03/16 00:00:01;;;;;;;4.15;1.92;;;;;;;18.40;54.75;99315.66;5091072;28;20072;-68
2023/03/16 00:02:26;;;;;;;3.63;1.80;;;;;;;18.40;54.87;99309.53;5088232;28;20062;-68
2023/03/16 00:04:53;;;;;;;3.63;1.63;;;;;;;18.39;54.88;99306.03;5087346;28;20031;-69
2023/03/16 00:07:20;;;;;;;3.45;1.50;;;;;;;18.40;54.85;99304.25;5091216;28;20024;-68
2023/03/16 00:09:46;;;;;;;6.10;1.90;;;;;;;18.38;54.60;99307.81;5088239;28;20024;-68
2023/03/16 00:12:15;;;;;;;2.95;1.60;;;;;;;18.41;54.90;99304.16;5091110;28;20081;-68
2023/03/16 00:14:49;;;;;;;5.38;1.98;;;;;;;18.37;54.90;99300.81;5088225;28;20025;-68
2023/03/16 00:17:17;;;;;;;3.42;1.30;;;;;;;18.35;54.72;99291.28;5091330;28;20085;-67
2023/03/16 00:20:05;;;;;;;4.07;1.70;;;;;;;18.33;54.82;99288.72;5090559;28;20042;-68
2023/03/16 00:22:31;;;;;;;3.05;1.50;;;;;;;18.33;54.56;99287.84;5090521;28;20449;-68
2023/03/16 00:24:57;;;;;;;4.47;1.60;;;;;;;18.35;54.76;99286.84;5091637;28;20024;-68
2023/03/16 00:27:24;;;;;;;4.07;1.60;;;;;;;18.34;54.51;99279.00;5093166;28;20073;-68
2023/03/16 00:29:54;;;;;;;4.25;1.75;;;;;;;18.30;54.79;99273.00;5085169;28;20024;-68
2023/03/16 00:32:31;;;;;;;3.20;1.75;;;;;;;18.28;54.74;99271.38;5090417;28;20511;-67
2023/03/16 00:34:57;;;;;;;3.67;1.40;;;;;;;18.26;54.78;99263.56;5091239;28;20503;-68
2023/03/16 00:37:25;;;;;;;2.80;1.50;;;;;;;18.28;54.77;99266.09;5092965;28;20107;-69
2023/03/16 00:39:51;;;;;;;3.78;1.63;;;;;;;18.23;54.69;99264.59;5089764;28;20384;-68
2023/03/16 00:42:18;;;;;;;2.80;1.63;;;;;;;18.28;54.86;99263.47;5088613;28;20039;-68
2023/03/16 00:44:44;;;;;;;3.15;1.50;;;;;;;18.23;54.42;99261.94;5089195;28;20032;-68
2023/03/16 00:47:14;;;;;;;3.53;1.52;;;;;;;18.21;54.65;99263.78;5090000;28;20069;-69
2023/03/16 00:49:41;;;;;;;3.42;1.63;;;;;;;18.18;54.72;99253.41;5092436;28;20040;-69
2023/03/16 00:52:08;;;;;;;3.38;1.60;;;;;;;18.20;54.88;99243.59;5088637;28;20066;-68
2023/03/16 00:54:33;;;;;;;3.90;1.70;;;;;;;18.20;54.53;99248.88;5090274;28;20058;-69
2023/03/16 00:57:00;;;;;;;3.03;1.40;;;;;;;18.18;54.86;99242.84;5088785;28;20704;-68
2023/03/16 00:59:25;;;;;;;3.40;1.70;;;;;;;18.14;54.55;99248.34;5091848;28;20111;-68
2023/03/16 01:01:52;;;;;;;3.92;1.50;;;;;;;18.11;54.44;99244.06;5088218;28;20495;-69
2023/03/16 01:04:18;;;;;;;3.53;1.80;;;;;;;18.11;54.52;99241.44;5090678;28;20027;-68
2023/03/16 01:06:44;;;;;;;3.78;1.75;;;;;;;18.07;54.44;99231.97;5089822;28;20012;-68
2023/03/16 01:09:10;;;;;;;3.97;1.30;;;;;;;18.06;54.56;99227.66;5089247;28;20020;-68
2023/03/16 01:11:36;;;;;;;3.45;1.55;;;;;;;18.06;54.50;99225.84;5090619;28;20047;-69
2023/03/16 01:14:02;;;;;;;2.88;1.42;;;;;;;18.04;54.77;99218.91;5087373;28;20520;-69
2023/03/16 01:16:28;;;;;;;5.28;1.52;;;;;;;18.04;54.36;99218.91;5086298;28;20162;-68
2023/03/16 01:18:55;;;;;;;3.08;1.30;;;;;;;17.95;54.67;99214.94;5088765;28;20091;-67
2023/03/16 01:21:21;;;;;;;2.90;1.55;;;;;;;17.97;54.33;99219.22;5088624;28;20099;-69
2023/03/16 01:23:47;;;;;;;3.13;1.45;;;;;;;17.96;54.43;99212.25;5088399;28;20019;-68
2023/03/16 01:26:15;;;;;;;2.92;1.40;;;;;;;17.95;54.55;99214.94;5090166;28;20037;-67
2023/03/16 01:46:07;;;;;;;3.17;1.63;;;;;;;17.94;54.36;99176.28;5087196;28;20518;-67
2023/03/16 01:48:48;;;;;;;3.20;1.60;;;;;;;17.90;54.66;99169.47;5085660;28;20442;-67
2023/03/16 01:51:44;;;;;;;2.70;1.63;;;;;;;17.89;54.39;99183.59;5088580;28;20040;-67
2023/03/16 01:54:22;;;;;;;3.20;1.50;;;;;;;17.90;54.29;99169.47;5091341;28;20511;-69
2023/03/16 01:57:03;;;;;;;3.78;1.75;;;;;;;17.89;54.62;99173.91;5089178;28;20027;-68
2023/03/16 01:59:38;;;;;;;3.15;1.40;;;;;;;17.92;54.55;99176.38;5086358;28;20127;-68
2023/03/16 02:02:05;;;;;;;4.23;1.50;;;;;;;17.88;54.40;99163.41;5087273;28;20059;-66
2023/03/16 02:05:08;;;;;;;3.17;1.40;;;;;;;17.94;54.18;99161.31;5088046;28;20024;-67
2023/03/16 02:07:39;;;;;;;2.95;1.45;;;;;;;17.90;54.05;99159.75;5089825;28;20051;-68
2023/03/16 02:10:06;;;;;;;2.97;1.45;;;;;;;17.89;54.35;99159.84;5089684;28;20024;-68
2023/03/16 02:12:32;;;;;;;3.38;1.20;;;;;;;17.89;54.21;99158.06;5086106;28;20022;-68
2023/03/16 02:14:57;;;;;;;3.47;1.60;;;;;;;17.84;54.33;99162.72;5091581;28;20024;-68
2023/03/16 02:17:27;;;;;;;3.45;1.55;;;;;;;17.83;54.32;99155.75;5087754;28;20024;-67
2023/03/16 02:20:16;;;;;;;3.65;1.90;;;;;;;17.80;54.50;99153.25;5090174;28;20046;-67
2023/03/16 02:22:45;;;;;;;2.25;1.38;;;;;;;17.81;54.55;99145.25;5089827;28;20110;-68
2023/03/16 02:25:13;;;;;;;3.88;1.50;;;;;;;17.81;54.27;99144.41;5087810;28;20031;-69
2023/03/16 02:27:44;;;;;;;3.13;1.40;;;;;;;17.83;54.32;99132.00;5087303;28;20016;-68
2023/03/16 02:30:15;;;;;;;3.63;1.63;;;;;;;17.79;54.09;99135.72;5091924;28;20031;-68
2023/03/16 02:32:42;;;;;;;2.78;1.40;;;;;;;17.77;54.30;99132.31;5092267;28;20020;-68
2023/03/16 02:35:11;;;;;;;2.47;1.40;;;;;;;17.79;54.26;99135.72;5094323;28;20024;-68
2023/03/16 02:37:37;;;;;;;1.88;1.10;;;;;;;17.76;54.24;99136.72;5095236;28;20028;-69
2023/03/16 02:40:23;;;;;;;3.00;1.67;;;;;;;17.73;54.50;99129.00;5093978;28;20541;-69
2023/03/16 02:43:12;;;;;;;3.78;1.88;;;;;;;17.70;54.22;99116.81;5094851;28;20107;-68
2023/03/16 02:45:50;;;;;;;2.65;1.33;;;;;;;17.64;54.47;99114.50;5092258;28;20045;-67
2023/03/16 02:48:31;;;;;;;4.05;2.00;;;;;;;17.65;54.33;99118.84;5095153;28;20454;-68
2023/03/16 02:50:57;;;;;;;3.17;1.58;;;;;;;17.61;54.43;99117.28;5091321;28;20064;-68
2023/03/16 02:53:23;;;;;;;2.90;1.50;;;;;;;17.64;54.05;99116.28;5090461;28;20035;-68
2023/03/16 02:55:48;;;;;;;4.05;1.60;;;;;;;17.63;54.06;99104.03;5094801;28;20020;-66
2023/03/16 02:58:15;;;;;;;2.95;1.45;;;;;;;17.63;54.02;99093.47;5095059;28;20438;-67
2023/03/16 03:00:41;;;;;;;2.83;1.58;;;;;;;17.62;54.27;99087.31;5094731;28;20043;-68
2023/03/16 03:03:08;;;;;;;4.28;1.70;;;;;;;17.63;54.27;99078.47;5094947;28;20433;-67
2023/03/16 03:05:34;;;;;;;3.67;1.80;;;;;;;17.57;54.07;99073.50;5092581;28;20115;-69
2023/03/16 03:08:00;;;;;;;3.65;1.60;;;;;;;17.53;54.10;99072.00;5090549;28;20122;-69
2023/03/16 03:10:25;;;;;;;3.53;1.58;;;;;;;17.56;54.21;99072.69;5092162;28;20028;-68
2023/03/16 03:12:51;;;;;;;3.20;1.60;;;;;;;17.57;54.29;99068.25;5091439;28;20024;-68
2023/03/16 03:15:17;;;;;;;2.55;1.33;;;;;;;17.53;54.12;99072.84;5090796;28;20058;-68
2023/03/16 03:17:43;;;;;;;4.35;1.77;;;;;;;17.54;54.12;99065.78;5091927;28;20031;-67
2023/03/16 03:20:15;;;;;;;2.25;1.42;;;;;;;17.55;54.20;99060.44;5091882;28;20468;-67
2023/03/16 03:22:43;;;;;;;3.35;1.75;;;;;;;17.49;54.17;99062.53;5092883;28;20036;-68
2023/03/16 03:25:10;;;;;;;2.75;1.27;;;;;;;17.51;54.21;99050.09;5092994;28;20051;-67
2023/03/16 03:27:35;;;;;;;3.65;1.73;;;;;;;17.54;54.01;99052.59;5093931;28;20391;-68
2023/03/16 03:30:01;;;;;;;3.58;1.70;;;;;;;17.57;54.16;99049.78;5091816;28;20024;-67
2023/03/16 03:32:26;;;;;;;2.83;1.40;;;;;;;17.57;54.07;99048.00;5090524;28;20045;-68
2023/03/16 03:34:51;;;;;;;4.35;1.60;;;;;;;17.59;54.07;99047.94;5089099;28;20020;-69
2023/03/16 03:37:17;;;;;;;3.38;1.30;;;;;;;17.61;54.20;99047.81;5094002;28;20036;-67
2023/03/16 03:39:44;;;;;;;3.83;1.60;;;;;;;17.60;53.94;99047.00;5090923;28;20048;-67
2023/03/16 03:42:10;;;;;;;3.65;1.42;;;;;;;17.59;54.04;99045.28;5092226;28;20032;-67
2023/03/16 03:44:36;;;;;;;3.42;1.58;;;;;;;17.57;54.13;99039.22;5087990;28;20097;-68
2023/03/16 03:47:01;;;;;;;2.85;1.48;;;;;;;17.53;53.90;99040.34;5091560;28;20032;-68
2023/03/16 03:49:27;;;;;;;2.28;1.30;;;;;;;17.55;54.03;99049.88;5093692;28;20020;-68
2023/03/16 03:51:54;;;;;;;3.05;1.48;;;;;;;17.59;53.85;99047.94;5091714;28;20506;-68
2023/03/16 03:54:20;;;;;;;2.70;1.15;;;;;;;17.52;54.16;99043.88;5089005;28;20102;-69
2023/03/16 03:56:45;;;;;;;1.88;1.23;;;;;;;17.53;54.05;99045.63;5088486;28;20119;-68
2023/03/16 03:59:11;;;;;;;3.63;1.60;;;;;;;17.53;54.09;99045.63;5087628;28;20427;-67
2023/03/16 04:01:36;;;;;;;3.25;1.52;;;;;;;17.53;54.11;99041.19;5091860;28;20055;-67
2023/03/16 04:04:01;;;;;;;3.45;1.77;;;;;;;17.56;54.22;99040.16;5091002;28;20040;-67
2023/03/16 04:06:27;;;;;;;4.88;1.60;;;;;;;17.54;54.18;99026.22;5092256;28;20020;-68
2023/03/16 04:08:53;;;;;;;3.25;1.70;;;;;;;17.51;54.11;99027.22;5093154;28;20031;-68
2023/03/16 04:11:19;;;;;;;2.95;1.30;;;;;;;17.50;53.91;99022.03;5088752;28;20032;-68
2023/03/16 04:13:45;;;;;;;3.08;1.50;;;;;;;17.44;54.08;99026.69;5090671;28;20024;-67
2023/03/16 04:16:15;;;;;;;2.88;1.48;;;;;;;17.49;53.84;99022.97;5090682;28;20031;-66
2023/03/16 04:18:40;;;;;;;2.97;1.35;;;;;;;17.44;54.09;99018.78;5091671;28;20031;-69
2023/03/16 04:21:11;;;;;;;2.78;1.60;;;;;;;17.39;54.00;99018.16;5093073;28;20024;-69
2023/03/16 04:23:37;;;;;;;3.03;1.38;;;;;;;17.44;54.01;99026.69;5093404;28;20016;-67
2023/03/16 04:26:04;;;;;;;2.15;1.38;;;;;;;17.46;54.05;99023.97;5091978;28;20081;-68
2023/03/16 04:28:31;;;;;;;2.40;1.13;;;;;;;17.43;54.05;99024.13;5089107;28;20024;-68
2023/03/16 04:31:05;;;;;;;2.22;1.20;;;;;;;17.43;54.18;99025.00;5088690;28;20017;-68
2023/03/16 04:33:34;;;;;;;3.22;1.70;;;;;;;17.40;54.19;99030.44;5090511;28;20099;-68
2023/03/16 04:36:01;;;;;;;3.65;1.42;;;;;;;17.39;53.93;99026.06;5092978;28;20035;-67
2023/03/16 04:38:28;;;;;;;3.25;1.50;;;;;;;17.43;54.09;99025.00;5092697;28;20395;-68
2023/03/16 04:40:53;;;;;;;2.00;1.23;;;;;;;17.39;53.88;99028.72;5089741;28;20021;-68
2023/03/16 04:43:19;;;;;;;3.00;1.40;;;;;;;17.34;53.85;99030.75;5085031;28;20556;-68
2023/03/16 04:45:44;;;;;;;2.08;1.10;;;;;;;17.37;53.94;99030.59;5092521;28;20099;-68
2023/03/16 04:48:10;;;;;;;4.07;1.40;;;;;;;17.34;53.85;99030.75;5091494;28;20023;-67
2023/03/16 04:50:35;;;;;;;1.80;1.10;;;;;;;17.36;53.59;99028.88;5092585;28;20044;-68
2023/03/16 04:53:01;;;;;;;2.35;1.15;;;;;;;17.32;53.70;99029.97;5090292;28;20024;-67
2023/03/16 04:55:26;;;;;;;2.33;1.02;;;;;;;17.29;54.02;99028.34;5087539;28;20113;-68
2023/03/16 04:57:52;;;;;;;2.95;1.30;;;;;;;17.27;53.89;99024.94;5089946;28;20020;-68
2023/03/16 05:00:18;;;;;;;2.78;1.13;;;;;;;17.29;54.15;99016.97;5088243;28;20024;-69
2023/03/16 05:02:44;;;;;;;3.15;1.50;;;;;;;17.34;53.98;99030.75;5085637;28;20109;-68
2023/03/16 05:05:10;;;;;;;3.17;1.15;;;;;;;17.35;54.05;99024.56;5091041;28;20043;-68
2023/03/16 05:07:35;;;;;;;2.47;1.25;;;;;;;17.33;53.89;99020.28;5092530;28;20085;-68
2023/03/16 05:10:01;;;;;;;2.63;1.20;;;;;;;17.35;53.66;99016.66;5090046;28;20496;-67
2023/03/16 05:12:26;;;;;;;2.08;1.05;;;;;;;17.34;53.81;99012.28;5090410;28;20027;-68
2023/03/16 05:14:52;;;;;;;3.03;1.30;;;;;;;17.31;53.83;99015.09;5087952;28;20414;-67
2023/03/16 05:17:17;;;;;;;3.80;1.20;;;;;;;17.24;53.97;99009.28;5091244;28;20039;-68
2023/03/16 05:19:42;;;;;;;2.58;1.17;;;;;;;17.21;54.06;99013.88;5092134;28;20023;-67
2023/03/16 05:22:08;;;;;;;2.50;1.10;;;;;;;17.21;54.08;99012.09;5089227;28;20050;-67
2023/03/16 05:24:35;;;;;;;2.33;1.08;;;;;;;17.21;53.83;99008.59;5087274;28;20098;-68
2023/03/16 05:27:02;;;;;;;1.95;1.02;;;;;;;17.24;53.88;99000.53;5092212;28;20073;-68
2023/03/16 05:29:29;;;;;;;3.03;1.42;;;;;;;17.23;53.96;98996.19;5091870;28;20077;-67
2023/03/16 05:31:55;;;;;;;2.42;1.20;;;;;;;17.22;53.94;98989.19;5087994;28;20031;-68
2023/03/16 05:34:21;;;;;;;3.83;1.50;;;;;;;17.20;53.73;98988.44;5088822;28;20016;-67
2023/03/16 05:36:47;;;;;;;2.63;1.13;;;;;;;17.19;53.88;98990.19;5091940;28;20028;-67
2023/03/16 05:39:12;;;;;;;3.83;1.45;;;;;;;17.16;54.07;98996.50;5092007;28;20464;-68
2023/03/16 05:41:38;;;;;;;4.40;1.80;;;;;;;17.18;54.14;98999.06;5090788;28;20089;-68
2023/03/16 05:44:03;;;;;;;3.78;1.33;;;;;;;17.18;53.82;98997.28;5091514;28;20035;-68
2023/03/16 05:46:29;;;;;;;2.42;1.17;;;;;;;17.20;53.87;99006.88;5091775;28;20016;-66
2023/03/16 05:48:54;;;;;;;3.10;1.00;;;;;;;17.17;54.05;99002.63;5089426;28;20618;-68
2023/03/16 05:51:20;;;;;;;3.42;1.35;;;;;;;17.12;54.12;99005.50;5090151;28;20048;-68
2023/03/16 05:53:45;;;;;;;3.35;1.48;;;;;;;17.11;54.08;99010.84;5085075;28;20495;-67
2023/03/16 05:56:11;;;;;;;2.88;1.30;;;;;;;17.15;54.30;99005.34;5089246;28;20028;-69
2023/03/16 05:58:36;;;;;;;3.72;1.70;;;;;;;17.14;54.04;99003.63;5088101;28;20039;-69
2023/03/16 06:01:03;;;;;;;4.05;1.92;;;;;;;17.14;54.11;99002.81;5089421;28;20024;-68
2023/03/16 06:03:30;;;;;;;4.07;1.40;;;;;;;17.20;54.38;98998.97;5089421;28;20482;-67
2023/03/16 06:05:55;;;;;;;3.53;1.27;;;;;;;17.21;54.56;99003.31;5087276;28;20031;-68
2023/03/16 06:08:21;;;;;;;3.78;1.27;;;;;;;17.21;54.27;99003.31;5095352;28;20032;-67
2023/03/16 06:10:49;;;;;;;4.70;1.90;;;;;;;17.18;54.42;98992.00;5095811;28;20038;-69
2023/03/16 06:13:14;;;;;;;7.15;1.80;;;;;;;17.23;54.88;98997.03;5093679;28;20097;-66
2023/03/16 06:15:40;;;;;;;5.38;1.55;;;;;;;17.27;54.73;98992.44;5094629;28;20451;-70
2023/03/16 06:18:06;;;;;;;10.00;1.70;;;;;;;17.24;54.39;98992.63;5094857;28;20023;-70
2023/03/16 06:20:31;;;;;;;3.25;1.67;;;;;;;17.27;54.63;98992.44;5097352;28;20016;-71
2023/03/16 06:22:57;;;;;;;6.60;1.92;;;;;;;17.27;54.50;98987.16;5097648;28;20024;-70
2023/03/16 06:25:22;;;;;;;5.05;1.58;;;;;;;17.28;54.52;98995.00;5093247;28;20036;-71
2023/03/16 06:27:48;;;;;;;4.38;1.50;;;;;;;17.29;54.37;99006.41;5095628;28;20024;-70
2023/03/16 06:30:14;;;;;;;5.13;1.60;;;;;;;17.28;54.33;99005.56;5093991;28;20024;-71
2023/03/16 06:32:41;;;;;;;5.10;1.30;;;;;;;17.28;54.56;98996.78;5093416;28;20020;-70
2023/03/16 06:35:08;;;;;;;3.20;1.83;;;;;;;17.27;54.31;99000.34;5092553;28;20042;-72
2023/03/16 06:37:34;;;;;;;3.92;1.50;;;;;;;17.25;54.60;98996.97;5095521;28;20086;-70
2023/03/16 06:39:59;;;;;;;5.45;1.60;;;;;;;17.23;54.68;98996.19;5097855;28;20016;-70
2023/03/16 06:42:25;;;;;;;5.28;1.90;;;;;;;17.20;54.58;98991.06;5097084;28;20035;-69
2023/03/16 06:44:51;;;;;;;7.50;2.20;;;;;;;17.23;54.56;98991.75;5095914;28;20029;-69
2023/03/16 06:47:17;;;;;;;8.32;2.33;;;;;;;17.24;54.63;98993.44;5095234;28;20035;-70
2023/03/16 06:49:43;;;;;;;7.88;2.53;;;;;;;17.24;54.46;98990.81;5091959;28;20145;-71
2023/03/16 06:52:12;;;;;;;9.57;2.63;;;;;;;17.22;54.22;98978.66;5089810;28;20396;-70
2023/03/16 06:54:38;;;;;;;9.57;2.70;;;;;;;17.21;54.43;98984.84;5092606;28;20400;-70
2023/03/16 06:57:04;;;;;;;10.52;3.28;;;;;;;17.19;54.04;98977.03;5097361;28;20024;-70
2023/03/16 06:59:30;;;;;;;11.07;2.88;;;;;;;17.13;54.17;98970.31;5096102;28;20020;-70
2023/03/16 07:01:55;;;;;;;10.32;2.83;;;;;;;17.16;54.41;98972.75;5094158;28;20031;-69
2023/03/16 07:04:21;;;;;;;10.90;3.10;;;;;;;17.16;53.98;98962.22;5097790;28;20383;-71
2023/03/16 07:06:46;;;;;;;11.52;3.10;;;;;;;17.17;54.25;98973.63;5098164;28;20549;-69
2023/03/16 07:09:12;;;;;;;10.73;3.05;;;;;;;17.17;54.21;98971.00;5096850;28;20028;-69
2023/03/16 07:11:37;;;;;;;8.00;2.45;;;;;;;17.12;53.80;98971.25;5090317;28;20028;-70
2023/03/16 07:14:03;;;;;;;7.93;2.90;;;;;;;17.15;53.68;98963.16;5092978;28;20048;-67
2023/03/16 07:16:29;;;;;;;8.10;2.45;;;;;;;17.11;53.45;98961.63;5091559;28;20020;-70
2023/03/16 07:18:54;;;;;;;7.90;2.53;;;;;;;17.11;53.42;98971.31;5091196;28;20032;-69
2023/03/16 07:21:20;;;;;;;7.38;2.45;;;;;;;17.09;53.80;98970.56;5086426;28;20497;-70
2023/03/16 07:23:46;;;;;;;7.38;2.45;;;;;;;17.11;53.20;98972.19;5088512;28;20020;-70
2023/03/16 07:26:11;;;;;;;6.32;2.33;;;;;;;17.13;53.29;98969.44;5089217;28;20498;-70
2023/03/16 07:28:37;;;;;;;7.15;2.08;;;;;;;17.13;53.31;98974.72;5092617;28;20486;-70
2023/03/16 07:31:04;;;;;;;8.98;2.83;;;;;;;17.16;53.95;98972.75;5083957;28;20107;-69
2023/03/16 07:33:31;;;;;;;6.93;2.63;;;;;;;17.17;54.28;98982.41;5086235;28;20032;-71
2023/03/16 07:35:56;;;;;;;6.85;2.13;;;;;;;17.15;53.87;98989.53;5087861;28;20032;-70
2023/03/16 07:38:22;;;;;;;5.78;2.00;;;;;;;17.15;53.80;98989.53;5094491;28;20020;-69
2023/03/16 07:40:48;;;;;;;7.88;2.22;;;;;;;17.15;53.60;98994.78;5093868;28;20028;-70
2023/03/16 07:43:13;;;;;;;6.82;2.28;;;;;;;17.20;53.86;98997.22;5094590;28;20032;-68
2023/03/16 07:45:39;;;;;;;9.68;1.98;;;;;;;17.18;53.68;98994.66;5092983;28;20027;-71
2023/03/16 07:48:04;;;;;;;6.60;2.00;;;;;;;17.18;53.48;98991.16;5079230;28;20469;-70
2023/03/16 07:50:30;;;;;;;6.13;1.90;;;;;;;17.20;53.71;98980.53;5094286;28;20111;-69
2023/03/16 07:52:55;;;;;;;9.48;1.92;;;;;;;17.20;53.57;98993.72;5093102;28;20494;-70
2023/03/16 07:55:20;;;;;;;5.35;2.00;;;;;;;17.22;53.22;99002.38;5093897;28;20552;-70
2023/03/16 07:57:47;;;;;;;5.47;1.60;;;;;;;17.23;53.25;98997.03;5094066;28;20491;-69
2023/03/16 08:00:13;;;;;;;6.45;1.65;;;;;;;17.22;53.01;98989.19;5093511;28;20024;-69
2023/03/16 08:02:39;;;;;;;6.00;1.20;;;;;;;17.21;52.79;98993.63;5094046;28;20024;-70
2023/03/16 08:05:04;;;;;;;5.25;1.50;;;;;;;17.23;52.88;98991.75;5094033;28;20028;-70
2023/03/16 08:07:30;;;;;;;5.57;1.95;;;;;;;17.22;52.70;98983.91;5094231;28;20066;-70
2023/03/16 08:09:56;;;;;;;6.45;1.55;;;;;;;17.17;52.45;98974.50;5093737;28;20027;-69
2023/03/16 08:12:22;;;;;;;3.45;1.40;;;;;;;17.19;52.31;98979.66;5094048;28;20167;-70
2023/03/16 08:14:47;;;;;;;5.75;1.33;;;;;;;17.19;52.11;98984.94;5092634;28;20024;-70
2023/03/16 08:17:13;;;;;;;4.90;1.50;;;;;;;17.21;52.01;98977.81;5093529;28;20063;-70
2023/03/16 08:19:39;;;;;;;6.65;1.30;;;;;;;17.22;51.97;98978.66;5093889;28;20070;-70
2023/03/16 08:22:04;;;;;;;6.30;1.15;;;;;;;17.24;51.99;98982.06;5093620;28;20616;-70
2023/03/16 08:24:31;;;;;;;3.40;1.20;;;;;;;17.20;51.16;98970.84;5093562;28;20111;-69
2023/03/16 08:26:58;;;;;;;4.53;1.33;;;;;;;17.18;50.94;98968.28;5093502;28;20020;-69
2023/03/16 08:29:24;;;;;;;3.38;0.98;;;;;;;17.16;51.16;98970.13;5093532;28;20024;-71
2023/03/16 08:31:53;;;;;;;4.35;1.25;;;;;;;17.21;50.68;98982.22;5093676;28;20090;-70
2023/03/16 08:34:19;;;;;;;5.35;1.30;;;;;;;17.18;50.92;98967.41;5093644;28;20085;-70
2023/03/16 08:36:44;;;;;;;2.75;1.20;;;;;;;17.20;50.82;98969.97;5093576;28;20446;-71
2023/03/16 08:39:10;;;;;;;2.88;1.00;;;;;;;17.20;50.65;98970.84;5093046;28;20035;-69
2023/03/16 08:41:35;;;;;;;3.15;1.00;;;;;;;17.21;50.74;98971.69;5093608;28;20028;-70
2023/03/16 08:44:02;;;;;;;3.58;1.15;;;;;;;17.21;50.14;98976.94;5093322;28;20031;-69
2023/03/16 08:46:28;;;;;;;3.15;1.15;;;;;;;17.21;50.56;98987.50;5093312;28;20387;-70
2023/03/16 08:48:54;;;;;;;4.50;1.20;;;;;;;17.24;50.23;98976.81;5093428;28;20388;-70
2023/03/16 08:51:20;;;;;;;4.60;1.40;;;;;;;17.25;50.83;98989.03;5093071;28;20052;-71
2023/03/16 08:53:45;;;;;;;3.92;1.02;;;;;;;17.25;50.38;98978.50;5092776;28;20020;-70
2023/03/16 08:56:13;;;;;;;4.65;1.40;;;;;;;17.25;50.40;98989.03;5093047;28;20103;-70
2023/03/16 08:58:44;;;;;;;3.30;1.30;;;;;;;17.28;50.66;98973.03;5092908;28;20012;-70
2023/03/16 09:01:12;;;;;;;3.25;1.25;;;;;;;17.27;50.42;98963.44;5093047;28;20051;-70
2023/03/16 09:03:39;;;;;;;3.00;0.95;;;;;;;17.28;50.23;98978.31;5093153;28;20020;-70
2023/03/16 09:06:08;;;;;;;3.63;0.73;;;;;;;17.27;50.03;98976.63;5092857;28;20032;-70
2023/03/16 09:08:34;;;;;;;2.05;1.15;;;;;;;17.31;50.22;98980.81;5092340;28;20020;-71
2023/03/16 09:11:06;;;;;;;3.53;1.00;;;;;;;17.30;50.23;98971.19;5092701;28;20024;-71
2023/03/16 09:13:33;;;;;;;4.15;1.10;;;;;;;17.30;50.25;98969.41;5092939;28;20391;-69
2023/03/16 09:15:59;;;;;;;3.85;1.05;;;;;;;17.31;50.25;98973.75;5092649;28;20101;-69
2023/03/16 09:18:26;;;;;;;3.70;1.30;;;;;;;17.31;49.78;98968.50;5092876;28;20479;-69
2023/03/16 09:20:56;;;;;;;4.38;0.80;;;;;;;17.32;49.84;98964.03;5092621;28;20036;-70
2023/03/16 09:23:22;;;;;;;3.20;1.13;;;;;;;17.34;49.93;98967.44;5092808;28;20024;-68
2023/03/16 09:25:47;;;;;;;4.70;1.10;;;;;;;17.33;50.35;98973.66;5092436;28;20036;-70
2023/03/16 09:28:12;;;;;;;3.30;1.00;;;;;;;17.34;49.90;98967.44;5092658;28;20030;-69
2023/03/16 09:30:38;;;;;;;3.70;1.13;;;;;;;17.35;49.57;98976.22;5092658;28;20031;-71
2023/03/16 09:33:03;;;;;;;2.78;1.00;;;;;;;17.37;50.07;98976.97;5092402;28;20036;-70
2023/03/16 09:35:31;;;;;;;4.88;1.30;;;;;;;17.37;49.69;98983.13;5092341;28;20107;-70
2023/03/16 09:37:56;;;;;;;3.20;1.05;;;;;;;17.37;50.08;98983.13;5092319;28;20028;-71
2023/03/16 09:40:25;;;;;;;4.22;1.35;;;;;;;17.37;49.55;98971.69;5091788;28;20024;-70
2023/03/16 09:43:09;;;;;;;3.47;1.00;;;;;;;17.40;50.05;98979.47;5092497;28;20036;-70
2023/03/16 09:45:55;;;;;;;3.25;1.08;;;;;;;17.40;50.14;98966.28;5090881;28;20024;-69
2023/03/16 09:48:21;;;;;;;5.72;1.00;;;;;;;17.38;49.67;98963.72;5092266;28;20429;-69
2023/03/16 09:50:47;;;;;;;3.80;1.10;;;;;;;17.40;49.82;98967.16;5091816;28;20037;-69
2023/03/16 09:53:36;;;;;;;2.83;1.02;;;;;;;17.40;49.61;98964.50;5092237;28;20115;-70
2023/03/16 09:56:09;;;;;;;4.20;1.00;;;;;;;17.41;49.34;98963.56;5092049;28;20026;-70
2023/03/16 09:58:35;;;;;;;3.33;1.20;;;;;;;17.41;49.53;98971.47;5092073;28;20059;-70
2023/03/16 10:01:18;;;;;;;3.10;0.90;;;;;;;17.43;49.65;98968.72;5092138;28;20052;-69
2023/03/16 10:03:44;;;;;;;3.65;0.90;;;;;;;17.43;49.54;98966.97;5091911;28;20020;-70
2023/03/16 10:06:12;;;;;;;3.80;1.17;;;;;;;17.44;49.54;98968.66;5091657;28;20090;-69
2023/03/16 10:09:19;;;;;;;3.65;1.13;;;;;;;17.45;49.67;98956.34;5091939;28;20024;-71
2023/03/16 10:11:48;;;;;;;3.40;1.02;;;;;;;17.45;49.57;98965.09;5049740;28;20037;-68
2023/03/16 10:14:18;;;;;;;2.30;0.93;;;;;;;17.43;49.34;98961.69;5049816;28;20048;-70
2023/03/16 10:16:51;;;;;;;2.67;0.90;;;;;;;17.44;49.29;98955.47;5032762;28;20190;-70
2023/03/16 10:19:24;;;;;;;3.55;0.90;;;;;;;17.48;49.47;98957.97;5048617;28;20029;-70
2023/03/16 10:21:53;;;;;;;2.60;1.02;;;;;;;17.47;49.06;98951.81;5047160;28;20056;-70
2023/03/16 10:24:52;;;;;;;4.05;1.15;;;;;;;17.48;49.52;98947.41;5049342;28;20032;-70
2023/03/16 10:27:27;;;;;;;5.00;1.20;;;;;;;17.49;49.30;98949.09;5045034;28;20112;-69
2023/03/16 10:29:52;;;;;;;4.20;1.10;;;;;;;17.48;49.28;98947.41;5049217;28;20032;-71
2023/03/16 10:32:18;;;;;;;1.90;0.90;;;;;;;17.49;49.33;98947.31;5049464;28;20405;-70
2023/03/16 10:34:55;;;;;;;2.15;1.02;;;;;;;17.51;49.22;98947.22;5048973;28;20548;-70
2023/03/16 10:37:22;;;;;;;3.15;1.00;;;;;;;17.49;49.02;98949.97;5049306;28;20112;-70
2023/03/16 10:39:48;;;;;;;3.55;1.17;;;;;;;17.52;49.07;98956.84;5049334;28;20111;-68
2023/03/16 10:42:20;;;;;;;5.03;1.10;;;;;;;17.52;48.98;98943.66;5049499;28;20464;-70
2023/03/16 10:44:46;;;;;;;3.28;1.15;;;;;;;17.53;48.99;98945.38;5049072;28;20119;-70
2023/03/16 10:47:23;;;;;;;3.05;0.90;;;;;;;17.54;49.20;98952.34;5057777;28;20161;-68
2023/03/16 10:49:50;;;;;;;2.53;1.02;;;;;;;17.53;48.85;98945.38;5091180;28;20028;-69
2023/03/16 10:52:18;;;;;;;2.65;0.73;;;;;;;17.54;48.80;98952.34;5092617;28;20024;-69
2023/03/16 10:54:51;;;;;;;2.17;0.80;;;;;;;17.55;48.99;98948.78;5095706;28;20024;-70
2023/03/16 10:57:22;;;;;;;4.00;0.80;;;;;;;17.56;48.91;98939.91;5095553;28;20073;-69
2023/03/16 10:59:50;;;;;;;3.15;0.90;;;;;;;17.57;49.27;98936.34;5093927;28;20034;-69
2023/03/16 11:02:19;;;;;;;3.17;1.10;;;;;;;17.57;48.80;98926.66;5095105;28;20028;-68
2023/03/16 11:04:46;;;;;;;1.98;0.80;;;;;;;17.60;49.13;98937.94;5095015;28;20029;-69
2023/03/16 11:07:19;;;;;;;2.58;0.90;;;;;;;17.61;49.19;98937.00;5095374;28;20093;-69
2023/03/16 11:09:46;;;;;;;3.05;1.23;;;;;;;17.62;49.07;98933.47;5095192;28;20027;-68
2023/03/16 11:12:22;;;;;;;4.13;1.35;;;;;;;17.62;49.37;98929.03;5095268;28;20369;-68
2023/03/16 11:14:47;;;;;;;4.03;1.10;;;;;;;17.64;49.15;98931.59;5095078;28;20132;-68
2023/03/16 11:17:50;;;;;;;4.00;0.90;;;;;;;17.65;49.47;98934.13;5094650;28;20527;-68
2023/03/16 11:20:31;;;;;;;5.65;1.13;;;;;;;17.66;49.54;98935.84;5084239;28;20036;-70
2023/03/16 11:22:59;;;;;;;2.30;1.13;;;;;;;17.66;49.01;98933.19;5092707;28;20397;-69
2023/03/16 11:25:45;;;;;;;2.58;0.85;;;;;;;17.69;49.52;98925.09;5090571;28;20080;-70
2023/03/16 11:28:18;;;;;;;2.33;0.90;;;;;;;17.69;49.39;98930.38;5090600;28;20556;-68
2023/03/16 11:30:56;;;;;;;3.25;1.05;;;;;;;17.70;49.13;98921.53;5084034;28;20107;-68
2023/03/16 11:33:26;;;;;;;2.15;0.85;;;;;;;17.71;49.39;98922.38;5079985;28;20101;-67
2023/03/16 11:36:06;;;;;;;3.60;1.10;;;;;;;17.71;49.21;98917.97;5082094;28;20025;-71
2023/03/16 11:38:53;;;;;;;4.00;1.23;;;;;;;17.74;49.36;98926.63;5084738;28;20051;-68
2023/03/16 11:41:33;;;;;;;2.75;1.02;;;;;;;17.74;49.16;98929.28;5086885;28;20070;-69
2023/03/16 11:44:18;;;;;;;2.20;1.00;;;;;;;17.75;49.04;98928.34;5094437;28;20422;-68
2023/03/16 11:46:43;;;;;;;2.22;0.90;;;;;;;17.75;48.99;98918.63;5084173;28;20107;-69
2023/03/16 11:49:46;;;;;;;6.43;1.17;;;;;;;17.76;49.24;98922.13;5086206;28;20103;-69
2023/03/16 11:52:30;;;;;;;3.83;1.20;;;;;;;17.75;49.22;98918.63;5048876;28;20184;-68
2023/03/16 11:55:27;;;;;;;3.03;1.17;;;;;;;17.77;49.21;98926.47;5047542;28;20523;-68
2023/03/16 11:58:11;;;;;;;4.22;1.15;;;;;;;17.78;49.17;98928.19;5043731;28;20393;-69